Time;durP1;ratioP1;P1;durP2;ratioP2;P2;SDS_P1;SDS_P2;PMS_P1;PMS_P2;Temp;Humidity;BMP_temperature;BMP_pressure;BME280_temperature;BME280_humidity;BME280_pressure;Samples;Min_cycle;Max_cycle;Signal;HPM_P1;HPM_P2
2023/04/22 00:02:09;;;;;;;5.85;4.50;;;11.50;99.90;;;;;;5055235;28;20041;-78
2023/04/22 00:04:35;;;;;;;6.00;4.53;;;11.50;99.90;;;;;;5056043;28;20053;-79
2023/04/22 00:07:01;;;;;;;5.88;3.92;;;11.30;99.90;;;;;;5039038;28;20051;-78
2023/04/22 00:09:27;;;;;;;5.50;3.22;;;11.20;99.90;;;;;;5055280;28;20135;-78
2023/04/22 00:11:52;;;;;;;5.60;3.58;;;11.00;99.90;;;;;;5038742;28;20131;-79
2023/04/22 00:14:18;;;;;;;6.30;4.30;;;10.90;99.90;;;;;;5055527;28;20045;-79
2023/04/22 00:16:44;;;;;;;8.13;4.10;;;10.90;99.90;;;;;;5055824;28;20056;-78
2023/04/22 00:19:09;;;;;;;46.50;6.25;;;10.90;99.90;;;;;;5055231;28;20098;-78
2023/04/22 00:21:35;;;;;;;11.60;4.15;;;10.90;99.90;;;;;;5038348;28;20082;-78
2023/04/22 00:24:01;;;;;;;4.40;3.10;;;10.80;99.90;;;;;;5056331;28;20187;-79
2023/04/22 00:26:27;;;;;;;165.48;13.65;;;10.70;99.90;;;;;;5056096;28;20048;-78
2023/04/22 00:28:53;;;;;;;5.57;4.15;;;10.70;99.90;;;;;;5056078;28;20051;-79
2023/04/22 00:31:19;;;;;;;5.60;4.10;;;10.60;99.90;;;;;;5040258;28;20048;-78
2023/04/22 00:33:44;;;;;;;5.20;4.05;;;10.60;99.90;;;;;;5056994;28;20499;-78
2023/04/22 00:36:10;;;;;;;5.15;3.88;;;10.60;99.90;;;;;;5057956;28;20041;-78
2023/04/22 00:38:36;;;;;;;5.40;4.70;;;10.60;99.90;;;;;;5054944;28;20083;-78
2023/04/22 00:41:01;;;;;;;5.72;4.53;;;10.60;99.90;;;;;;5054828;28;20151;-79
2023/04/22 00:43:27;;;;;;;4.70;3.70;;;10.60;99.90;;;;;;5054997;28;20056;-79
2023/04/22 00:45:53;;;;;;;5.63;4.40;;;10.60;99.90;;;;;;5055517;28;20128;-79
2023/04/22 00:48:19;;;;;;;5.72;5.00;;;10.60;99.90;;;;;;5054566;28;20040;-79
2023/04/22 00:50:45;;;;;;;5.47;4.43;;;10.50;99.90;;;;;;5055073;28;20455;-78
2023/04/22 00:53:11;;;;;;;6.40;5.10;;;10.50;99.90;;;;;;5055512;28;20174;-79
2023/04/22 00:55:36;;;;;;;6.18;5.05;;;10.50;99.90;;;;;;5054873;28;20048;-79
2023/04/22 00:58:03;;;;;;;5.38;4.38;;;10.50;99.90;;;;;;5055081;28;20160;-79
2023/04/22 01:00:29;;;;;;;4.68;3.88;;;10.50;99.90;;;;;;5055395;28;20060;-79
2023/04/22 01:02:56;;;;;;;4.95;3.90;;;10.40;99.90;;;;;;5054697;28;20048;-78
2023/04/22 01:05:24;;;;;;;4.32;3.72;;;10.30;99.90;;;;;;5055323;28;20067;-79
2023/04/22 01:07:50;;;;;;;5.15;4.47;;;10.30;99.90;;;;;;5055080;28;20393;-78
2023/04/22 01:10:17;;;;;;;5.40;4.32;;;10.30;99.90;;;;;;5055219;28;20045;-78
2023/04/22 01:12:42;;;;;;;6.88;4.88;;;10.20;99.90;;;;;;5053457;28;20519;-79
2023/04/22 01:15:08;;;;;;;7.47;5.38;;;10.30;99.90;;;;;;5054155;28;20044;-78
2023/04/22 01:17:34;;;;;;;5.43;4.68;;;10.20;99.90;;;;;;5021740;28;20091;-78
2023/04/22 01:20:04;;;;;;;7.85;5.57;;;10.20;99.90;;;;;;5055137;28;20049;-78
2023/04/22 01:22:36;;;;;;;7.13;5.60;;;10.10;99.90;;;;;;5053556;28;20061;-78
2023/04/22 01:25:02;;;;;;;5.93;4.97;;;10.10;99.90;;;;;;5054630;28;20052;-78
2023/04/22 01:27:28;;;;;;;6.07;5.28;;;10.00;99.90;;;;;;5054196;28;20055;-78
2023/04/22 01:29:54;;;;;;;6.68;4.97;;;10.00;99.90;;;;;;5055418;28;20456;-78
2023/04/22 01:32:20;;;;;;;6.63;5.68;;;10.10;99.90;;;;;;5037215;28;20045;-78
2023/04/22 01:34:46;;;;;;;7.68;4.38;;;10.10;99.90;;;;;;5054760;28;20045;-78
2023/04/22 01:37:12;;;;;;;9.15;5.22;;;10.00;99.90;;;;;;5037099;28;20103;-78
2023/04/22 01:39:38;;;;;;;7.20;5.68;;;10.00;99.90;;;;;;5053972;28;20045;-78
2023/04/22 01:42:03;;;;;;;114.18;11.93;;;10.00;99.90;;;;;;5053670;28;20422;-78
2023/04/22 01:44:29;;;;;;;7.70;5.07;;;10.00;99.90;;;;;;5054251;28;20113;-77
2023/04/22 01:46:55;;;;;;;8.70;5.55;;;9.90;99.90;;;;;;5037703;28;20049;-77
2023/04/22 01:49:21;;;;;;;7.32;4.72;;;9.70;99.90;;;;;;5053293;28;20049;-78
2023/04/22 01:51:46;;;;;;;8.05;6.05;;;9.60;99.90;;;;;;5053089;28;20041;-76
2023/04/22 01:54:13;;;;;;;29.95;8.27;;;9.50;99.90;;;;;;5053345;28;20086;-75
2023/04/22 01:56:39;;;;;;;91.53;10.60;;;9.50;99.90;;;;;;5036792;28;20446;-77
2023/04/22 01:59:06;;;;;;;4.55;4.07;;;9.40;99.90;;;;;;5053979;28;20551;-78
2023/04/22 02:01:32;;;;;;;5.20;3.95;;;9.30;99.90;;;;;;5053262;28;20055;-78
2023/04/22 02:03:57;;;;;;;5.18;3.20;;;9.30;99.90;;;;;;5053209;28;20045;-78
2023/04/22 02:06:23;;;;;;;3.63;3.03;;;9.30;99.90;;;;;;5036615;28;20444;-77
2023/04/22 02:08:49;;;;;;;3.10;2.75;;;9.20;99.90;;;;;;5053176;28;20044;-78
2023/04/22 02:11:15;;;;;;;20.65;4.40;;;9.20;99.90;;;;;;5053422;28;20045;-77
2023/04/22 02:13:41;;;;;;;2.88;2.40;;;9.20;99.90;;;;;;5053066;28;20382;-77
2023/04/22 02:16:07;;;;;;;4.38;3.35;;;9.20;99.90;;;;;;5052989;28;20056;-78
2023/04/22 02:18:32;;;;;;;4.68;3.72;;;9.20;99.90;;;;;;5053490;28;20048;-77
2023/04/22 02:20:58;;;;;;;4.15;3.28;;;9.30;99.90;;;;;;5053616;28;20049;-78
2023/04/22 02:23:24;;;;;;;5.90;4.07;;;9.40;99.90;;;;;;5035022;28;20092;-77
2023/04/22 02:25:51;;;;;;;4.00;3.58;;;9.50;99.90;;;;;;5053827;28;20094;-77
2023/04/22 02:28:18;;;;;;;7.10;5.97;;;9.60;99.90;;;;;;5052878;28;20060;-78
2023/04/22 02:30:46;;;;;;;8.70;6.50;;;9.70;99.90;;;;;;5053073;28;20057;-78
2023/04/22 02:33:12;;;;;;;9.77;6.82;;;9.50;99.90;;;;;;5053752;28;20044;-77
2023/04/22 02:35:38;;;;;;;9.88;7.45;;;9.70;99.90;;;;;;5053972;28;20155;-77
2023/04/22 02:38:04;;;;;;;8.52;7.20;;;9.70;99.90;;;;;;5052524;28;20036;-77
2023/04/22 02:40:29;;;;;;;9.15;7.53;;;9.70;99.90;;;;;;5052377;28;20040;-78
2023/04/22 02:42:55;;;;;;;9.52;7.95;;;9.70;99.90;;;;;;5052843;28;20045;-77
2023/04/22 02:45:21;;;;;;;9.48;7.53;;;9.70;99.90;;;;;;5053559;28;20393;-77
2023/04/22 02:47:47;;;;;;;9.30;7.57;;;9.70;99.90;;;;;;5035966;28;20421;-78
2023/04/22 02:50:13;;;;;;;9.25;7.47;;;9.60;99.90;;;;;;5054026;28;20118;-77
2023/04/22 02:52:38;;;;;;;8.45;7.35;;;9.60;99.90;;;;;;5053261;28;20075;-77
2023/04/22 02:55:05;;;;;;;9.43;7.38;;;9.50;99.90;;;;;;5053450;28;20084;-78
2023/04/22 02:57:31;;;;;;;8.63;7.72;;;9.50;99.90;;;;;;5053386;28;20080;-77
2023/04/22 02:59:56;;;;;;;11.13;8.05;;;9.50;99.90;;;;;;5052069;28;20077;-77
2023/04/22 03:02:22;;;;;;;10.13;8.07;;;9.50;99.90;;;;;;5053208;28;20033;-77
2023/04/22 03:04:48;;;;;;;9.45;7.88;;;9.40;99.90;;;;;;5052364;28;20045;-77
2023/04/22 03:07:13;;;;;;;8.77;7.88;;;9.40;99.90;;;;;;5052443;28;20084;-77
2023/04/22 03:09:39;;;;;;;8.63;7.50;;;9.40;99.90;;;;;;5052380;28;20094;-77
2023/04/22 03:12:05;;;;;;;10.05;8.07;;;9.40;99.90;;;;;;5053541;28;20041;-77
2023/04/22 03:14:31;;;;;;;10.93;8.13;;;9.30;99.90;;;;;;5052312;28;20063;-77
2023/04/22 03:16:56;;;;;;;9.63;8.63;;;9.30;99.90;;;;;;5052233;28;20110;-77
2023/04/22 03:19:22;;;;;;;9.63;8.63;;;9.30;99.90;;;;;;5052815;28;20171;-77
2023/04/22 03:21:48;;;;;;;10.18;8.50;;;9.30;99.90;;;;;;5051974;28;20041;-77
2023/04/22 03:24:13;;;;;;;10.40;9.13;;;9.30;99.90;;;;;;5053755;28;20107;-77
2023/04/22 03:26:39;;;;;;;11.25;8.75;;;9.30;99.90;;;;;;5052447;28;20051;-77
2023/04/22 03:29:05;;;;;;;11.65;9.32;;;9.30;99.90;;;;;;5053702;28;20045;-77
2023/04/22 03:31:30;;;;;;;10.80;8.85;;;9.30;99.90;;;;;;5051650;28;20153;-77
2023/04/22 03:33:56;;;;;;;11.00;9.60;;;9.30;99.90;;;;;;5051921;28;20216;-77
2023/04/22 03:36:22;;;;;;;223.68;19.92;;;9.30;99.90;;;;;;5056388;28;20041;-77
2023/04/22 03:38:47;;;;;;;15.70;6.50;;;9.30;99.90;;;;;;5056054;28;20047;-77
2023/04/22 03:41:13;;;;;;;8.10;7.22;;;9.20;99.90;;;;;;5055900;28;20544;-76
2023/04/22 03:43:39;;;;;;;9.55;8.10;;;9.20;99.90;;;;;;5056910;28;20045;-77
2023/04/22 03:46:05;;;;;;;9.27;8.02;;;9.20;99.90;;;;;;5055802;28;20045;-77
2023/04/22 03:48:34;;;;;;;29.40;10.50;;;9.10;99.90;;;;;;5055465;28;20088;-77
2023/04/22 03:51:01;;;;;;;60.53;9.65;;;9.20;99.90;;;;;;5055649;28;20056;-76
2023/04/22 03:53:27;;;;;;;20.13;9.65;;;9.10;99.90;;;;;;5055669;28;20049;-76
2023/04/22 03:55:53;;;;;;;34.25;9.77;;;9.10;99.90;;;;;;5039094;28;20522;-76
2023/04/22 03:58:18;;;;;;;77.78;10.82;;;8.90;99.90;;;;;;5056175;28;20129;-76
2023/04/22 04:00:44;;;;;;;8.90;6.78;;;8.70;99.90;;;;;;5055351;28;20048;-76
2023/04/22 04:03:10;;;;;;;7.65;6.85;;;8.50;99.90;;;;;;5056437;28;20084;-76
2023/04/22 04:05:36;;;;;;;8.63;7.60;;;8.40;99.90;;;;;;5055465;28;20045;-76
2023/04/22 04:08:02;;;;;;;10.02;8.00;;;8.40;99.90;;;;;;5055422;28;20398;-76
2023/04/22 04:10:27;;;;;;;10.18;7.93;;;8.50;99.90;;;;;;5055677;28;20041;-76
2023/04/22 04:12:53;;;;;;;9.50;7.93;;;8.60;99.90;;;;;;5055516;28;20055;-76
2023/04/22 04:15:20;;;;;;;10.07;8.07;;;8.80;99.90;;;;;;5054788;28;20085;-77
2023/04/22 04:17:47;;;;;;;13.25;8.85;;;8.90;99.90;;;;;;5054401;28;20478;-77
2023/04/22 04:20:14;;;;;;;11.18;8.02;;;9.00;99.90;;;;;;5054235;28;20053;-77
2023/04/22 04:22:40;;;;;;;8.75;7.63;;;9.10;99.90;;;;;;5054195;28;20049;-77
2023/04/22 04:25:07;;;;;;;9.75;8.23;;;9.10;99.90;;;;;;5054508;28;20460;-77
2023/04/22 04:27:33;;;;;;;9.43;7.63;;;9.20;99.90;;;;;;5037976;28;20072;-78
2023/04/22 04:29:59;;;;;;;8.98;7.75;;;9.20;99.90;;;;;;5055199;28;20130;-77
2023/04/22 04:32:25;;;;;;;10.98;7.68;;;9.20;99.90;;;;;;5056501;28;20477;-77
2023/04/22 04:34:51;;;;;;;10.00;8.02;;;9.20;99.90;;;;;;5055897;28;20469;-77
2023/04/22 04:37:17;;;;;;;9.57;7.95;;;9.30;99.90;;;;;;5056383;28;20057;-78
2023/04/22 04:39:43;;;;;;;9.23;7.88;;;9.30;99.90;;;;;;5055119;28;20033;-78
2023/04/22 04:42:09;;;;;;;10.95;7.47;;;9.30;99.90;;;;;;5055856;28;20049;-78
2023/04/22 04:44:35;;;;;;;8.48;7.57;;;9.40;99.90;;;;;;5055664;28;20084;-78
2023/04/22 04:47:02;;;;;;;9.43;7.97;;;9.40;99.90;;;;;;5053663;28;20440;-78
2023/04/22 04:49:29;;;;;;;9.95;7.88;;;9.40;99.90;;;;;;5055578;28;20085;-78
2023/04/22 04:51:56;;;;;;;9.80;7.97;;;9.40;99.90;;;;;;5054850;28;20107;-79
2023/04/22 04:54:22;;;;;;;9.38;8.20;;;9.40;99.90;;;;;;5054535;28;20045;-79
2023/04/22 04:56:48;;;;;;;9.35;8.30;;;9.40;99.90;;;;;;5055381;28;20045;-78
2023/04/22 04:59:14;;;;;;;10.05;8.73;;;9.40;99.90;;;;;;5055004;28;20045;-78
2023/04/22 05:01:40;;;;;;;10.50;8.27;;;9.40;99.90;;;;;;5038654;28;20052;-78
2023/04/22 05:04:05;;;;;;;9.70;8.60;;;9.40;99.90;;;;;;5055429;28;20057;-79
2023/04/22 05:06:34;;;;;;;9.73;8.27;;;9.40;99.90;;;;;;5055539;28;20041;-79
2023/04/22 05:08:59;;;;;;;9.60;8.38;;;9.40;99.90;;;;;;5054889;28;20045;-77
2023/04/22 05:11:25;;;;;;;9.75;8.43;;;9.40;99.90;;;;;;5055258;28;20045;-78
2023/04/22 05:13:51;;;;;;;9.63;8.60;;;9.40;99.90;;;;;;5055782;28;20045;-77
2023/04/22 05:16:16;;;;;;;10.65;8.88;;;9.50;99.90;;;;;;5054594;28;20417;-78
2023/04/22 05:18:42;;;;;;;11.73;8.82;;;9.50;99.90;;;;;;5054965;28;20164;-78
2023/04/22 05:21:08;;;;;;;9.73;8.18;;;9.60;99.90;;;;;;5054852;28;20045;-78
2023/04/22 05:23:33;;;;;;;9.57;8.32;;;9.60;99.90;;;;;;5053300;28;20053;-79
2023/04/22 05:25:59;;;;;;;9.93;8.73;;;9.60;99.90;;;;;;5037406;28;20107;-79
2023/04/22 05:28:25;;;;;;;11.73;10.00;;;9.70;99.90;;;;;;5055176;28;20041;-79
2023/04/22 05:30:51;;;;;;;9.23;8.10;;;9.70;99.90;;;;;;5054598;28;20047;-79
2023/04/22 05:33:16;;;;;;;9.80;8.80;;;9.80;99.90;;;;;;5055642;28;20077;-79
2023/04/22 05:35:42;;;;;;;11.93;9.32;;;9.80;99.90;;;;;;5054029;28;20041;-79
2023/04/22 05:38:08;;;;;;;9.57;8.52;;;9.90;99.90;;;;;;5053513;28;20408;-79
2023/04/22 05:40:33;;;;;;;9.90;8.55;;;9.90;99.90;;;;;;5054369;28;20045;-78
2023/04/22 05:42:59;;;;;;;8.93;8.02;;;9.90;99.90;;;;;;5037068;28;20051;-79
2023/04/22 05:45:25;;;;;;;10.32;8.65;;;9.90;99.90;;;;;;5054591;28;20112;-80
2023/04/22 05:47:50;;;;;;;9.70;8.45;;;10.00;99.90;;;;;;5052991;28;20052;-79
2023/04/22 05:50:16;;;;;;;10.20;8.93;;;10.00;99.90;;;;;;5037009;28;20053;-79
2023/04/22 05:52:42;;;;;;;10.93;8.80;;;10.10;99.90;;;;;;5054382;28;20041;-78
2023/04/22 05:55:08;;;;;;;10.00;8.90;;;10.10;99.90;;;;;;5053897;28;20041;-80
2023/04/22 05:57:33;;;;;;;10.95;9.15;;;10.10;99.90;;;;;;5053028;28;20041;-79
2023/04/22 05:59:59;;;;;;;10.45;8.57;;;10.20;99.90;;;;;;5053096;28;20071;-79
2023/04/22 06:02:25;;;;;;;10.55;8.50;;;10.20;99.90;;;;;;5054153;28;20055;-79
2023/04/22 06:04:51;;;;;;;9.07;8.07;;;10.30;99.90;;;;;;5053247;28;20052;-79
2023/04/22 06:07:17;;;;;;;9.88;8.35;;;10.30;99.90;;;;;;5054145;28;20521;-79
2023/04/22 06:09:42;;;;;;;10.52;8.88;;;10.40;99.90;;;;;;5054237;28;20049;-79
2023/04/22 06:12:09;;;;;;;10.98;9.32;;;10.50;99.90;;;;;;5054130;28;20049;-80
2023/04/22 06:14:34;;;;;;;11.15;8.90;;;10.50;99.90;;;;;;5053757;28;20486;-80
2023/04/22 06:17:00;;;;;;;10.63;9.38;;;10.60;99.90;;;;;;5052919;28;20144;-80
2023/04/22 06:19:26;;;;;;;11.95;9.63;;;10.60;99.90;;;;;;5036206;28;20393;-79
2023/04/22 06:21:52;;;;;;;10.98;9.65;;;10.60;99.90;;;;;;5053651;28;20044;-80
2023/04/22 06:24:18;;;;;;;10.18;9.15;;;10.60;99.90;;;;;;5054484;28;20045;-79
2023/04/22 06:26:44;;;;;;;12.68;9.50;;;10.70;99.90;;;;;;5053896;28;20056;-80
2023/04/22 06:29:09;;;;;;;12.15;9.20;;;10.70;99.90;;;;;;5054278;28;20128;-79
2023/04/22 06:31:35;;;;;;;11.00;8.73;;;10.70;99.90;;;;;;5053769;28;20067;-79
2023/04/22 06:34:01;;;;;;;11.90;9.38;;;10.80;99.90;;;;;;5052399;28;20045;-79
2023/04/22 06:36:27;;;;;;;11.30;9.38;;;10.80;99.90;;;;;;5053621;28;20047;-79
2023/04/22 06:38:53;;;;;;;11.35;9.07;;;10.90;99.90;;;;;;5054101;28;20040;-79
2023/04/22 06:41:20;;;;;;;11.18;9.60;;;11.00;99.90;;;;;;5053647;28;20053;-80
2023/04/22 06:43:48;;;;;;;9.60;8.57;;;11.10;99.90;;;;;;5053645;28;20052;-80
2023/04/22 06:46:15;;;;;;;11.27;9.85;;;11.20;99.90;;;;;;5053601;28;20132;-80
2023/04/22 06:48:41;;;;;;;11.45;9.20;;;11.20;99.90;;;;;;5052613;28;20444;-79
2023/04/22 06:51:07;;;;;;;10.77;8.77;;;11.30;99.90;;;;;;5052447;28;20045;-80
2023/04/22 06:53:32;;;;;;;11.70;9.10;;;11.40;99.90;;;;;;5053473;28;20037;-80
2023/04/22 06:55:58;;;;;;;10.73;9.15;;;11.40;99.90;;;;;;5052738;28;20175;-78
2023/04/22 06:58:24;;;;;;;12.93;10.13;;;11.50;99.90;;;;;;5053319;28;20041;-79
2023/04/22 07:00:49;;;;;;;12.02;10.10;;;11.50;99.90;;;;;;5053696;28;20052;-79
2023/04/22 07:03:15;;;;;;;10.13;8.82;;;11.60;99.90;;;;;;5053403;28;20079;-79
2023/04/22 07:05:41;;;;;;;9.93;8.77;;;11.60;99.90;;;;;;5053685;28;20366;-79
2023/04/22 07:08:07;;;;;;;10.63;9.02;;;11.70;99.90;;;;;;5053406;28;20048;-79
2023/04/22 07:10:33;;;;;;;11.55;9.25;;;11.80;99.90;;;;;;5055530;28;20048;-76
2023/04/22 07:12:58;;;;;;;10.77;9.63;;;11.80;99.90;;;;;;5057337;28;20059;-79
2023/04/22 07:15:24;;;;;;;10.88;9.02;;;11.90;99.90;;;;;;5057322;28;20044;-79
2023/04/22 07:17:50;;;;;;;10.45;9.23;;;11.90;99.90;;;;;;5057433;28;20041;-82
2023/04/22 07:20:16;;;;;;;10.18;8.25;;;12.00;99.90;;;;;;5057256;28;20076;-80
2023/04/22 07:22:42;;;;;;;9.43;8.07;;;12.00;99.90;;;;;;5057207;28;20095;-80
2023/04/22 07:25:08;;;;;;;9.25;8.13;;;12.10;99.90;;;;;;5057684;28;20057;-79
2023/04/22 07:27:37;;;;;;;10.52;8.45;;;12.10;99.90;;;;;;5057215;28;20045;-79
2023/04/22 07:30:05;;;;;;;11.13;8.70;;;12.20;99.90;;;;;;5057012;28;20496;-79
2023/04/22 07:32:31;;;;;;;10.73;8.40;;;12.30;99.90;;;;;;5057847;28;20056;-79
2023/04/22 07:34:56;;;;;;;12.23;9.15;;;12.40;99.90;;;;;;5057544;28;20091;-80
2023/04/22 07:37:22;;;;;;;10.63;8.88;;;12.50;99.90;;;;;;5055819;28;20045;-79
2023/04/22 07:39:48;;;;;;;11.07;8.57;;;12.70;99.90;;;;;;5056985;28;20127;-80
2023/04/22 07:42:13;;;;;;;9.90;7.85;;;12.70;99.90;;;;;;5056142;28;20041;-80
2023/04/22 07:44:39;;;;;;;9.07;8.18;;;12.80;99.90;;;;;;5056313;28;20591;-80
2023/04/22 07:47:07;;;;;;;12.02;8.43;;;12.90;99.90;;;;;;5056988;28;20128;-80
2023/04/22 07:49:33;;;;;;;9.60;8.13;;;13.00;99.90;;;;;;5057323;28;20385;-79
2023/04/22 07:51:58;;;;;;;10.40;8.52;;;13.10;99.90;;;;;;5056692;28;20127;-80
2023/04/22 07:54:24;;;;;;;9.95;8.25;;;13.10;99.90;;;;;;5055288;28;20045;-79
2023/04/22 07:56:50;;;;;;;8.50;7.60;;;13.20;99.90;;;;;;5056852;28;20099;-79
2023/04/22 07:59:15;;;;;;;9.20;7.53;;;13.30;99.90;;;;;;5056570;28;20048;-78
2023/04/22 08:01:41;;;;;;;9.90;7.88;;;13.40;99.90;;;;;;5056675;28;20436;-74
2023/04/22 08:04:07;;;;;;;9.02;7.63;;;13.60;99.90;;;;;;5056841;28;20072;-78
2023/04/22 08:06:33;;;;;;;9.07;7.55;;;13.70;99.90;;;;;;5057001;28;20067;-79
2023/04/22 08:08:59;;;;;;;11.82;8.32;;;13.80;99.90;;;;;;5056096;28;20494;-79
2023/04/22 08:11:24;;;;;;;8.65;7.35;;;13.90;99.90;;;;;;5056317;28;20128;-79
2023/04/22 08:13:50;;;;;;;9.38;7.47;;;14.00;99.90;;;;;;5056254;28;20099;-79
2023/04/22 08:16:16;;;;;;;9.40;8.00;;;14.20;99.90;;;;;;5056087;28;20056;-74
2023/04/22 08:18:43;;;;;;;9.55;8.10;;;14.30;99.90;;;;;;5056532;28;20115;-74
2023/04/22 08:21:08;;;;;;;8.68;7.47;;;14.50;99.90;;;;;;5055818;28;20478;-74
2023/04/22 08:23:34;;;;;;;9.52;7.57;;;14.60;99.90;;;;;;5056418;28;20099;-74
2023/04/22 08:26:00;;;;;;;8.55;6.72;;;14.90;99.90;;;;;;5056501;28;20376;-74
2023/04/22 08:28:25;;;;;;;8.35;6.97;;;15.00;99.90;;;;;;5056045;28;20449;-73
2023/04/22 08:30:51;;;;;;;8.00;6.63;;;15.10;99.90;;;;;;5056539;28;20099;-73
2023/04/22 08:33:17;;;;;;;7.80;6.63;;;15.20;99.90;;;;;;5056109;28;20059;-75
2023/04/22 08:35:43;;;;;;;7.03;5.95;;;15.20;99.90;;;;;;5056359;28;20080;-73
2023/04/22 08:38:09;;;;;;;7.35;6.32;;;15.30;99.90;;;;;;5055646;28;20469;-74
2023/04/22 08:40:34;;;;;;;9.85;6.82;;;15.30;99.90;;;;;;5055687;28;20044;-74
2023/04/22 08:43:00;;;;;;;7.50;6.40;;;15.40;99.90;;;;;;5055709;28;20131;-75
2023/04/22 08:45:27;;;;;;;8.45;6.40;;;15.50;99.90;;;;;;5055623;28;20060;-74
2023/04/22 08:47:53;;;;;;;6.63;5.63;;;15.60;99.90;;;;;;5055580;28;20182;-72
2023/04/22 08:50:21;;;;;;;7.28;5.57;;;15.60;99.90;;;;;;5055453;28;20520;-73
2023/04/22 08:52:47;;;;;;;6.25;5.28;;;15.80;99.90;;;;;;5055944;28;20052;-81
2023/04/22 08:55:13;;;;;;;6.03;4.93;;;16.00;99.90;;;;;;5054855;28;20374;-80
2023/04/22 08:57:41;;;;;;;6.18;5.35;;;16.10;99.90;;;;;;5055620;28;20507;-79
2023/04/22 09:00:08;;;;;;;7.78;6.03;;;16.10;99.90;;;;;;5055423;28;20052;-80
2023/04/22 09:02:35;;;;;;;5.95;4.82;;;16.20;99.90;;;;;;5055422;28;20088;-80
2023/04/22 09:05:04;;;;;;;7.10;5.82;;;16.30;99.90;;;;;;5055220;28;20098;-79
2023/04/22 09:07:31;;;;;;;7.10;6.00;;;16.50;99.90;;;;;;5055263;28;20041;-81
2023/04/22 09:09:57;;;;;;;7.25;5.82;;;16.60;99.90;;;;;;5055416;28;20056;-73
2023/04/22 09:12:24;;;;;;;7.50;5.30;;;16.70;99.90;;;;;;5055044;28;20041;-75
2023/04/22 09:14:51;;;;;;;7.13;5.55;;;16.90;99.90;;;;;;5055045;28;20049;-77
2023/04/22 09:17:18;;;;;;;6.95;5.53;;;17.00;99.90;;;;;;5055080;28;20056;-76
2023/04/22 09:19:44;;;;;;;6.32;5.55;;;17.10;99.90;;;;;;5055103;28;20383;-76
2023/04/22 09:22:13;;;;;;;6.47;5.43;;;17.30;99.90;;;;;;5053501;28;20045;-76
2023/04/22 09:24:52;;;;;;;8.30;5.70;;;17.40;99.90;;;;;;5054930;28;20057;-75
2023/04/22 09:27:18;;;;;;;6.78;5.30;;;17.60;99.90;;;;;;5037551;28;20056;-74
2023/04/22 09:29:54;;;;;;;6.28;5.32;;;17.70;99.90;;;;;;5055102;28;20049;-75
2023/04/22 09:32:23;;;;;;;6.55;5.85;;;17.80;99.90;;;;;;5054202;28;20201;-74
2023/04/22 09:34:51;;;;;;;7.38;5.80;;;18.00;99.90;;;;;;5055250;28;20052;-76
2023/04/22 09:37:26;;;;;;;6.78;5.47;;;18.10;99.90;;;;;;5054651;28;20084;-77
2023/04/22 09:39:53;;;;;;;5.90;4.47;;;18.20;99.90;;;;;;5054613;28;20052;-76
2023/04/22 09:42:20;;;;;;;5.85;4.30;;;18.30;99.90;;;;;;5054525;28;20072;-78
2023/04/22 09:44:53;;;;;;;5.03;4.10;;;18.40;99.90;;;;;;5054539;28;20107;-77
2023/04/22 09:47:20;;;;;;;5.28;4.30;;;18.50;99.90;;;;;;5054448;28;20049;-76
2023/04/22 09:49:49;;;;;;;4.00;3.42;;;18.60;99.90;;;;;;5054449;28;20048;-76
2023/04/22 09:52:26;;;;;;;5.35;4.00;;;18.50;99.90;;;;;;5053142;28;20094;-78
2023/04/22 09:54:53;;;;;;;5.82;4.00;;;18.40;99.90;;;;;;5038003;28;20052;-76
2023/04/22 09:57:22;;;;;;;4.15;3.60;;;18.50;99.90;;;;;;5054685;28;20489;-76
2023/04/22 09:59:51;;;;;;;5.40;4.25;;;18.60;99.90;;;;;;5054996;28;20053;-77
2023/04/22 10:02:17;;;;;;;4.20;3.38;;;18.80;99.90;;;;;;5054514;28;20064;-75
2023/04/22 10:04:44;;;;;;;3.85;3.45;;;19.00;99.90;;;;;;5054141;28;20055;-76
2023/04/22 10:07:10;;;;;;;5.00;3.55;;;19.00;99.90;;;;;;5053040;28;20056;-77
2023/04/22 10:09:36;;;;;;;4.30;3.17;;;19.10;99.90;;;;;;5054063;28;20037;-77
2023/04/22 10:12:02;;;;;;;4.30;3.10;;;19.30;99.90;;;;;;5054272;28;20056;-77
2023/04/22 10:14:27;;;;;;;6.03;3.67;;;19.40;99.90;;;;;;5053870;28;20045;-76
2023/04/22 10:16:58;;;;;;;5.28;3.85;;;19.50;99.90;;;;;;5053934;28;20143;-77
2023/04/22 10:19:25;;;;;;;4.75;3.85;;;19.60;99.90;;;;;;5035822;28;20045;-76
2023/04/22 10:21:56;;;;;;;5.15;3.92;;;19.60;99.90;;;;;;5054408;28;20084;-77
2023/04/22 10:24:26;;;;;;;5.53;3.90;;;19.70;99.90;;;;;;5052675;28;20051;-76
2023/04/22 10:27:05;;;;;;;4.78;4.28;;;19.80;99.90;;;;;;5053510;28;20470;-76
2023/04/22 10:29:38;;;;;;;4.78;3.45;;;20.00;99.90;;;;;;5054454;28;20041;-76
2023/04/22 10:32:19;;;;;;;5.28;3.67;;;20.00;99.90;;;;;;5053751;28;20429;-77
2023/04/22 10:34:48;;;;;;;3.80;3.40;;;19.80;99.90;;;;;;5053623;28;20055;-77
2023/04/22 10:37:18;;;;;;;4.45;3.65;;;19.80;99.90;;;;;;5053469;28;20397;-77
2023/04/22 10:40:14;;;;;;;4.43;3.67;;;20.00;99.90;;;;;;5053297;28;20045;-77
2023/04/22 10:42:41;;;;;;;4.80;4.23;;;20.10;99.90;;;;;;5053737;28;20091;-76
2023/04/22 10:45:12;;;;;;;6.25;4.22;;;20.30;99.90;;;;;;5052542;28;20049;-76
2023/04/22 10:47:39;;;;;;;4.45;3.90;;;20.40;99.90;;;;;;5053343;28;20055;-76
2023/04/22 10:50:20;;;;;;;5.72;4.07;;;20.50;99.90;;;;;;5053328;28;20124;-76
2023/04/22 10:52:51;;;;;;;5.45;4.30;;;20.50;99.90;;;;;;5053670;28;20450;-76
2023/04/22 10:55:17;;;;;;;5.28;4.53;;;20.60;99.90;;;;;;5053431;28;20106;-76
2023/04/22 10:57:45;;;;;;;4.97;4.15;;;20.90;99.90;;;;;;5053301;28;20041;-76
2023/04/22 11:00:19;;;;;;;5.22;4.45;;;20.90;99.90;;;;;;5053630;28;20114;-76
2023/04/22 11:03:20;;;;;;;5.35;4.18;;;21.00;99.90;;;;;;5053589;28;20188;-75
2023/04/22 11:05:46;;;;;;;5.03;4.03;;;21.10;99.90;;;;;;4953096;29;20098;-76
2023/04/22 11:08:13;;;;;;;5.07;4.50;;;21.30;99.90;;;;;;5032102;28;20057;-77
2023/04/22 11:10:42;;;;;;;6.07;4.40;;;21.40;99.90;;;;;;5052946;28;20063;-75
2023/04/22 11:13:18;;;;;;;4.70;4.10;;;21.40;99.90;;;;;;5053218;28;20087;-76
2023/04/22 11:15:54;;;;;;;5.18;4.10;;;21.40;99.90;;;;;;5053229;28;20390;-77
2023/04/22 11:18:24;;;;;;;4.75;3.92;;;21.60;99.90;;;;;;5053091;28;20041;-76
2023/04/22 11:20:52;;;;;;;5.03;4.53;;;21.80;99.90;;;;;;5053153;28;20102;-76
2023/04/22 11:23:21;;;;;;;6.00;4.38;;;21.80;99.90;;;;;;5052769;28;20064;-74
2023/04/22 11:25:52;;;;;;;5.13;4.63;;;22.00;99.90;;;;;;5053099;28;20533;-74
2023/04/22 11:28:21;;;;;;;5.65;3.80;;;22.10;99.90;;;;;;5053093;28;20090;-74
2023/04/22 11:30:48;;;;;;;4.97;3.95;;;22.10;99.90;;;;;;5052009;28;20087;-72
2023/04/22 11:33:15;;;;;;;5.20;4.38;;;22.20;99.90;;;;;;5052304;28;20117;-73
2023/04/22 11:35:41;;;;;;;4.53;4.07;;;22.10;99.90;;;;;;5051907;28;20049;-73
2023/04/22 11:38:08;;;;;;;5.07;4.10;;;21.90;99.90;;;;;;5053673;28;20372;-74
2023/04/22 11:40:36;;;;;;;4.80;4.13;;;21.80;99.90;;;;;;5052934;28;20074;-75
2023/04/22 11:43:04;;;;;;;5.68;4.85;;;21.70;99.90;;;;;;5051626;28;20053;-73
2023/04/22 11:45:31;;;;;;;5.07;3.97;;;21.80;99.90;;;;;;5053398;28;20045;-76
2023/04/22 11:47:57;;;;;;;4.93;4.07;;;21.90;99.90;;;;;;5052851;28;20150;-75
2023/04/22 11:50:29;;;;;;;6.70;4.10;;;21.90;99.90;;;;;;5053392;28;20049;-75
2023/04/22 11:52:59;;;;;;;5.35;4.10;;;21.80;99.90;;;;;;5051961;28;20083;-71
2023/04/22 11:55:33;;;;;;;5.28;4.40;;;21.60;99.90;;;;;;5052976;28;20405;-71
2023/04/22 11:58:04;;;;;;;5.40;4.40;;;21.30;99.90;;;;;;5057220;28;20124;-72
2023/04/22 12:00:42;;;;;;;5.32;4.40;;;21.20;99.90;;;;;;5056319;28;20089;-74
2023/04/22 12:03:12;;;;;;;5.10;4.05;;;21.10;99.90;;;;;;5057056;28;20405;-75
2023/04/22 12:05:43;;;;;;;5.20;4.70;;;21.20;99.90;;;;;;5054864;28;20079;-75
2023/04/22 12:08:15;;;;;;;5.38;4.70;;;21.50;99.90;;;;;;5056372;28;20049;-74
2023/04/22 12:10:46;;;;;;;5.00;4.30;;;21.90;99.90;;;;;;5057033;28;20052;-75
2023/04/22 12:13:26;;;;;;;5.07;4.30;;;22.40;99.90;;;;;;5056962;28;20055;-77
2023/04/22 12:16:03;;;;;;;5.18;4.35;;;22.60;99.90;;;;;;5056225;28;20088;-75
2023/04/22 12:18:30;;;;;;;5.93;4.43;;;22.80;99.90;;;;;;5056142;28;20124;-76
2023/04/22 12:21:11;;;;;;;5.05;4.55;;;22.90;99.90;;;;;;5056032;28;20045;-75
2023/04/22 12:23:48;;;;;;;5.63;4.97;;;22.90;99.90;;;;;;5055850;28;20060;-75
2023/04/22 12:26:16;;;;;;;5.30;4.63;;;22.70;99.90;;;;;;5056553;28;20466;-75
2023/04/22 12:28:43;;;;;;;5.10;4.60;;;22.60;99.90;;;;;;5056421;28;20041;-75
2023/04/22 12:31:10;;;;;;;5.55;4.22;;;22.60;99.90;;;;;;5056590;28;20393;-76
2023/04/22 12:33:36;;;;;;;4.78;4.28;;;22.70;99.90;;;;;;5055823;28;20045;-75
2023/04/22 12:36:02;;;;;;;6.30;4.55;;;22.70;99.90;;;;;;5056026;28;20045;-76
2023/04/22 12:38:28;;;;;;;6.22;4.15;;;22.40;99.90;;;;;;5055756;28;20080;-75
2023/04/22 12:40:54;;;;;;;5.30;4.32;;;22.20;99.90;;;;;;5055669;28;20081;-75
2023/04/22 12:43:20;;;;;;;5.13;4.30;;;21.90;99.90;;;;;;5055940;28;20127;-77
2023/04/22 12:45:46;;;;;;;4.70;4.00;;;22.20;99.90;;;;;;5055639;28;20075;-75
2023/04/22 12:48:12;;;;;;;4.75;3.75;;;22.80;99.90;;;;;;5055657;28;20041;-75